createdAt,value
2023-05-05T00:01:07.906Z,101286.16
2023-05-05T00:06:11.109Z,101287.29
2023-05-05T00:11:13.968Z,101286.77
2023-05-05T00:16:17.590Z,101290.58
2023-05-05T00:21:20.595Z,101287.55
2023-05-05T00:26:23.532Z,101288.27
2023-05-05T00:31:27.057Z,101284.37
2023-05-05T00:36:30.595Z,101284.64
2023-05-05T00:41:33.530Z,101286.06
2023-05-05T00:46:36.625Z,101282.36
2023-05-05T00:51:39.461Z,101281.69
2023-05-05T00:56:42.392Z,101281.10
2023-05-05T01:01:46.292Z,101287.68
2023-05-05T01:07:10.674Z,101291.06
2023-05-05T01:12:37.732Z,101292.22
2023-05-05T01:17:47.658Z,101293.07
2023-05-05T01:23:01.504Z,101284.08
2023-05-05T01:28:31.486Z,101277.98
2023-05-05T01:33:37.879Z,101275.44
2023-05-05T01:38:42.578Z,101272.31
2023-05-05T01:43:48.553Z,101268.45
2023-05-05T01:48:52.113Z,101269.60
2023-05-05T01:54:00.176Z,101266.52
2023-05-05T01:59:03.149Z,101263.48
2023-05-05T02:04:06.343Z,101262.32
2023-05-05T02:09:12.295Z,101261.61
2023-05-05T02:14:15.243Z,101262.70
2023-05-05T02:19:19.289Z,101258.81
2023-05-05T02:24:22.181Z,101254.66
2023-05-05T02:30:07.432Z,101251.32
2023-05-05T02:35:21.096Z,101250.84
2023-05-05T02:40:24.629Z,101250.02
2023-05-05T02:45:27.474Z,101245.69
2023-05-05T02:50:31.973Z,101250.16
2023-05-05T02:55:43.841Z,101245.05
2023-05-05T03:01:22.215Z,101240.31
2023-05-05T03:06:25.335Z,101239.62
2023-05-05T03:11:33.238Z,101238.70
2023-05-05T03:16:36.979Z,101236.04
2023-05-05T03:21:40.650Z,101239.40
2023-05-05T03:26:44.212Z,101235.58
2023-05-05T03:31:47.291Z,101239.96
2023-05-05T03:36:50.125Z,101238.08
2023-05-05T03:41:53.073Z,101238.63
2023-05-05T03:46:56.016Z,101236.73
2023-05-05T03:51:58.975Z,101237.76
2023-05-05T03:57:02.568Z,101237.69
2023-05-05T04:02:24.064Z,101239.46
2023-05-05T04:07:28.257Z,101239.75
2023-05-05T04:12:31.112Z,101240.66
2023-05-05T04:17:34.106Z,101238.27
2023-05-05T04:22:37.150Z,101242.20
2023-05-05T04:27:40.108Z,101243.09
2023-05-05T04:32:43.103Z,101253.21
2023-05-05T04:37:46.183Z,101267.47
2023-05-05T04:42:49.146Z,101282.54
2023-05-05T04:47:52.085Z,101293.41
2023-05-05T04:52:54.951Z,101291.58
2023-05-05T04:57:57.958Z,101298.92
2023-05-05T05:03:01.036Z,101299.12
2023-05-05T05:08:04.429Z,101300.40
2023-05-05T05:13:07.856Z,101306.80
2023-05-05T05:18:10.771Z,101310.40
2023-05-05T05:23:13.986Z,101309.20
2023-05-05T05:28:16.916Z,101309.20
2023-05-05T05:33:20.083Z,101313.33
2023-05-05T05:38:23.121Z,101315.67
2023-05-05T05:43:25.994Z,101314.86
2023-05-05T05:48:29.461Z,101319.33
2023-05-05T05:53:32.862Z,101318.55
2023-05-05T05:58:35.810Z,101319.55
2023-05-05T06:03:38.721Z,101320.52
2023-05-05T06:08:41.603Z,101316.70
2023-05-05T06:13:44.456Z,101315.58
2023-05-05T06:18:47.579Z,101316.47
2023-05-05T06:23:51.054Z,101318.17
2023-05-05T06:28:53.985Z,101311.67
2023-05-05T06:33:56.929Z,101310.75
2023-05-05T06:38:59.885Z,101313.13
2023-05-05T06:44:02.859Z,101319.88
2023-05-05T06:49:05.678Z,101312.30
2023-05-05T06:54:08.673Z,101318.34
2023-05-05T06:59:12.120Z,101322.75
2023-05-05T07:04:15.047Z,101327.31
2023-05-05T07:09:18.728Z,101324.41
2023-05-05T07:14:24.402Z,101324.38
2023-05-05T07:19:27.572Z,101323.77
2023-05-05T07:24:30.566Z,101324.91
2023-05-05T07:29:33.531Z,101330.42
2023-05-05T07:34:38.164Z,101328.80
2023-05-05T07:39:41.472Z,101325.31
2023-05-05T07:44:44.371Z,101323.92
2023-05-05T07:49:47.325Z,101324.76
2023-05-05T07:54:50.426Z,101327.41
2023-05-05T07:59:53.326Z,101327.46
2023-05-05T08:04:56.172Z,101327.72
2023-05-05T08:09:59.051Z,101326.22
2023-05-05T08:15:02.057Z,101326.79
2023-05-05T08:20:05.733Z,101328.41
2023-05-05T08:25:11.251Z,101334.06
2023-05-05T08:30:14.353Z,101335.96
2023-05-05T08:35:18.085Z,101336.63
2023-05-05T08:40:22.171Z,101336.34
2023-05-05T08:45:25.248Z,101335.95
2023-05-05T08:50:29.257Z,101339.02
2023-05-05T08:55:35.463Z,101337.51
2023-05-05T09:00:39.420Z,101329.19
2023-05-05T09:05:45.507Z,101323.99
2023-05-05T09:10:49.151Z,101333.39
2023-05-05T09:15:53.639Z,101331.62
2023-05-05T09:20:58.827Z,101330.64
2023-05-05T09:26:08.060Z,101328.36
2023-05-05T09:31:16.097Z,101333.17
2023-05-05T09:36:19.332Z,101330.22
2023-05-05T09:41:37.760Z,101337.02
2023-05-05T09:46:52.848Z,101334.22
2023-05-05T09:51:57.426Z,101334.63
2023-05-05T09:57:00.372Z,101339.92
2023-05-05T10:02:13.358Z,101336.97
2023-05-05T10:07:26.800Z,101330.48
2023-05-05T10:12:29.773Z,101328.05
2023-05-05T10:17:36.525Z,101328.61
2023-05-05T10:22:39.454Z,101326.13
2023-05-05T10:27:54.869Z,101325.50
2023-05-05T10:33:35.218Z,101325.57
2023-05-05T10:38:38.264Z,101328.48
2023-05-05T10:43:41.751Z,101328.00
2023-05-05T10:48:56.729Z,101328.33
2023-05-05T10:54:47.561Z,101324.30
2023-05-05T10:59:50.598Z,101331.46
2023-05-05T11:05:18.071Z,101330.53
2023-05-05T11:10:23.113Z,101333.59
2023-05-05T11:15:31.661Z,101325.66
2023-05-05T11:20:40.395Z,101326.85
2023-05-05T11:25:44.699Z,101317.54
2023-05-05T11:30:57.832Z,101311.09
2023-05-05T11:36:12.154Z,101316.17
2023-05-05T11:41:52.385Z,101323.38
2023-05-05T11:47:00.178Z,101320.50
2023-05-05T11:52:03.798Z,101319.52
2023-05-05T11:57:08.347Z,101320.95
2023-05-05T12:02:11.207Z,101322.66
2023-05-05T12:07:28.156Z,101321.63
2023-05-05T12:12:40.815Z,101320.11
2023-05-05T12:17:46.256Z,101324.56
2023-05-05T12:22:49.191Z,101327.88
2023-05-05T12:27:53.048Z,101319.35
2023-05-05T12:33:06.779Z,101317.05
2023-05-05T12:38:10.489Z,101319.12
2023-05-05T12:43:27.878Z,101322.33
2023-05-05T12:48:31.051Z,101322.49
2023-05-05T12:53:33.980Z,101328.13
2023-05-05T12:58:49.194Z,101324.91
2023-05-05T13:04:14.035Z,101325.48
2023-05-05T13:09:30.692Z,101323.98
2023-05-05T13:14:33.730Z,101327.67
2023-05-05T13:19:42.016Z,101329.16
2023-05-05T13:24:51.623Z,101333.88
2023-05-05T13:29:55.931Z,101327.23
2023-05-05T13:34:58.863Z,101327.86
2023-05-05T13:40:01.714Z,101323.14
2023-05-05T13:45:05.571Z,101318.77
2023-05-05T13:50:08.883Z,101320.81
2023-05-05T13:55:11.768Z,101320.70
2023-05-05T14:00:16.070Z,101318.13
2023-05-05T14:05:19.391Z,101315.02
2023-05-05T14:10:22.432Z,101320.07
2023-05-05T14:15:25.349Z,101319.43
2023-05-05T14:20:28.320Z,101326.55
2023-05-05T14:25:31.355Z,101329.63
2023-05-05T14:30:34.338Z,101331.44
2023-05-05T14:35:37.574Z,101330.83
2023-05-05T14:40:40.748Z,101324.92
2023-05-05T14:45:44.326Z,101325.58
2023-05-05T14:50:48.504Z,101328.66
2023-05-05T14:55:51.422Z,101336.80
2023-05-05T15:00:54.789Z,101334.95
2023-05-05T15:05:57.820Z,101331.83
2023-05-05T15:11:00.908Z,101339.66
2023-05-05T15:16:04.108Z,101343.08
2023-05-05T15:21:07.038Z,101344.73
2023-05-05T15:26:09.956Z,101342.41
2023-05-05T15:31:13.005Z,101345.79
2023-05-05T15:36:17.596Z,101348.23
2023-05-05T15:41:20.602Z,101348.16
2023-05-05T15:46:23.632Z,101353.09
2023-05-05T15:51:26.612Z,101350.81
2023-05-05T15:56:29.748Z,101353.98
2023-05-05T16:01:33.635Z,101348.41
2023-05-05T16:06:36.788Z,101348.96
2023-05-05T16:11:39.761Z,101349.44
2023-05-05T16:16:42.784Z,101346.58
2023-05-05T16:21:46.275Z,101346.04
2023-05-05T16:26:49.121Z,101344.43
2023-05-05T16:31:52.028Z,101344.27
2023-05-05T16:36:54.984Z,101344.33
2023-05-05T16:41:57.800Z,101343.38
2023-05-05T16:47:01.196Z,101342.33
2023-05-05T16:52:04.306Z,101343.67
2023-05-05T16:57:07.187Z,101350.61
2023-05-05T17:02:10.115Z,101350.11
2023-05-05T17:07:13.065Z,101349.77
2023-05-05T17:12:15.935Z,101347.85
2023-05-05T17:17:18.784Z,101357.39
2023-05-05T17:22:21.945Z,101354.38
2023-05-05T17:27:24.948Z,101357.11
2023-05-05T17:32:27.956Z,101357.58
2023-05-05T17:37:31.284Z,101363.60
2023-05-05T17:42:34.253Z,101363.58
2023-05-05T17:47:37.415Z,101367.64
2023-05-05T17:52:41.171Z,101374.73
2023-05-05T17:57:44.095Z,101381.91
2023-05-05T18:02:47.006Z,101387.20
2023-05-05T18:07:50.255Z,101391.73
2023-05-05T18:12:53.237Z,101397.20
2023-05-05T18:17:56.255Z,101401.84
2023-05-05T18:22:59.157Z,101401.74
2023-05-05T18:28:02.064Z,101408.14
2023-05-05T18:33:05.154Z,101411.46
2023-05-05T18:38:08.116Z,101415.67
2023-05-05T18:43:11.216Z,101414.10
2023-05-05T18:48:14.083Z,101422.59
2023-05-05T18:53:17.788Z,101422.31
2023-05-05T18:58:21.404Z,101423.29
2023-05-05T19:03:24.266Z,101420.86
2023-05-05T19:08:27.235Z,101425.11
2023-05-05T19:13:30.169Z,101421.77
2023-05-05T19:18:33.654Z,101420.71
2023-05-05T19:23:38.175Z,101427.42
2023-05-05T19:28:41.093Z,101423.62
2023-05-05T19:33:45.709Z,101425.85
2023-05-05T19:38:48.645Z,101415.75
2023-05-05T19:43:51.812Z,101419.34
2023-05-05T19:48:54.732Z,101423.45
2023-05-05T19:53:57.585Z,101427.34
2023-05-05T19:59:02.015Z,101424.17
2023-05-05T20:04:04.958Z,101419.91
2023-05-05T20:09:08.070Z,101420.23
2023-05-05T20:14:10.916Z,101418.92
2023-05-05T20:19:14.014Z,101420.73
2023-05-05T20:24:17.353Z,101413.91
2023-05-05T20:29:20.337Z,101417.71
2023-05-05T20:34:25.190Z,101421.39
2023-05-05T20:39:28.146Z,101421.08
2023-05-05T20:44:31.483Z,101419.33
2023-05-05T20:49:34.746Z,101416.74
2023-05-05T20:54:39.055Z,101420.41
2023-05-05T20:59:41.946Z,101417.31
2023-05-05T21:04:44.963Z,101421.42
2023-05-05T21:09:47.952Z,101426.30
2023-05-05T21:14:51.018Z,101418.22
2023-05-05T21:19:53.945Z,101417.74
2023-05-05T21:25:16.949Z,101417.25
2023-05-05T21:30:19.780Z,101421.91
2023-05-05T21:35:22.625Z,101423.01
2023-05-05T21:40:26.112Z,101424.48
2023-05-05T21:45:29.135Z,101426.39
2023-05-05T21:50:32.121Z,101428.55
2023-05-05T21:55:35.272Z,101434.63
2023-05-05T22:00:38.150Z,101432.27
2023-05-05T22:05:41.187Z,101430.23
2023-05-05T22:10:44.089Z,101422.27
2023-05-05T22:15:47.620Z,101420.27
2023-05-05T22:20:51.433Z,101416.81
2023-05-05T22:25:54.458Z,101417.30
2023-05-05T22:30:57.442Z,101412.01
2023-05-05T22:36:00.787Z,101415.80
2023-05-05T22:41:03.815Z,101412.85
2023-05-05T22:46:06.751Z,101408.56
2023-05-05T22:51:09.589Z,101409.07
2023-05-05T22:56:12.528Z,101406.91
2023-05-05T23:01:15.522Z,101407.27
2023-05-05T23:06:18.568Z,101399.81
2023-05-05T23:11:21.500Z,101397.31
2023-05-05T23:16:24.434Z,101401.27
2023-05-05T23:21:29.212Z,101400.83
2023-05-05T23:26:32.311Z,101401.65
2023-05-05T23:31:35.173Z,101393.27
2023-05-05T23:36:38.118Z,101394.04
2023-05-05T23:41:40.972Z,101385.35
2023-05-05T23:46:43.857Z,101384.73
2023-05-05T23:51:46.767Z,101387.62
2023-05-05T23:56:49.601Z,101399.59
